createdAt,value
2022-08-10T00:03:44.974Z,42.80
2022-08-10T00:08:59.981Z,42.80
2022-08-10T00:14:15.309Z,43.40
2022-08-10T00:20:02.606Z,42.80
2022-08-10T00:25:06.283Z,42.70
2022-08-10T00:30:21.984Z,42.70
2022-08-10T00:35:40.017Z,42.80
2022-08-10T00:40:55.314Z,43.40
2022-08-10T00:46:11.052Z,42.80
2022-08-10T00:51:48.133Z,42.70
2022-08-10T00:57:15.521Z,42.70
2022-08-10T01:02:34.447Z,42.70
2022-08-10T01:07:50.315Z,42.80
2022-08-10T01:13:06.303Z,42.70
2022-08-10T01:18:22.297Z,42.70
2022-08-10T01:23:38.308Z,42.70
2022-08-10T01:28:53.983Z,42.70
2022-08-10T01:34:08.982Z,42.70
2022-08-10T01:39:23.876Z,42.60
2022-08-10T01:44:39.014Z,42.60
2022-08-10T01:49:54.312Z,42.60
2022-08-10T01:55:10.273Z,43.20
2022-08-10T02:00:26.309Z,42.60
2022-08-10T02:05:42.348Z,42.60
2022-08-10T02:10:58.029Z,42.60
2022-08-10T02:16:13.081Z,42.60
2022-08-10T02:21:28.044Z,42.60
2022-08-10T02:26:43.221Z,42.70
2022-08-10T02:31:59.337Z,42.70
2022-08-10T02:37:15.033Z,42.70
2022-08-10T02:45:29.124Z,42.80
2022-08-10T02:48:04.968Z,42.70
2022-08-10T02:53:55.474Z,42.70
2022-08-10T02:58:55.303Z,42.80
2022-08-10T03:04:11.042Z,42.80
2022-08-10T03:09:26.060Z,42.80
2022-08-10T03:14:41.332Z,42.80
2022-08-10T03:20:33.825Z,42.80
2022-08-10T03:25:32.035Z,42.80
2022-08-10T03:30:47.009Z,42.80
2022-08-10T03:36:42.599Z,42.90
2022-08-10T03:41:37.039Z,42.90
2022-08-10T03:46:52.325Z,43.00
2022-08-10T03:52:07.986Z,43.00
2022-08-10T03:57:23.038Z,43.00
2022-08-10T04:02:43.206Z,42.90
2022-08-10T04:08:03.982Z,43.00
2022-08-10T04:13:23.319Z,43.00
2022-08-10T04:18:39.045Z,43.10
2022-08-10T04:23:54.303Z,43.10
2022-08-10T04:29:10.029Z,43.10
2022-08-10T04:34:25.352Z,43.10
2022-08-10T04:39:41.089Z,43.20
2022-08-10T04:44:56.289Z,43.20
2022-08-10T04:50:13.317Z,43.30
2022-08-10T04:55:33.107Z,43.40
2022-08-10T05:00:48.077Z,43.40
2022-08-10T05:06:03.090Z,43.40
2022-08-10T05:11:23.746Z,43.50
2022-08-10T05:16:39.028Z,43.50
2022-08-10T05:22:04.510Z,43.50
2022-08-10T05:27:20.328Z,43.50
2022-08-10T05:32:58.983Z,43.50
2022-08-10T05:38:14.492Z,43.50
2022-08-10T05:43:31.066Z,43.50
2022-08-10T05:48:56.356Z,43.50
2022-08-10T05:54:16.043Z,43.60
2022-08-10T06:00:30.782Z,43.60
2022-08-10T06:05:06.050Z,43.70
2022-08-10T06:10:31.541Z,43.70
2022-08-10T06:15:51.617Z,43.70
2022-08-10T06:21:08.642Z,43.70
2022-08-10T06:26:24.071Z,43.80
2022-08-10T06:31:47.956Z,43.80
2022-08-10T06:37:05.320Z,43.80
2022-08-10T06:42:21.354Z,43.90
2022-08-10T06:47:37.053Z,43.90
2022-08-10T06:52:52.070Z,43.90
2022-08-10T06:58:07.069Z,43.90
2022-08-10T07:03:27.368Z,43.90
2022-08-10T07:08:42.777Z,43.90
2022-08-10T07:14:17.397Z,43.90
2022-08-10T07:19:33.078Z,43.80
2022-08-10T07:24:48.086Z,43.90
2022-08-10T07:30:03.367Z,43.80
2022-08-10T07:35:19.389Z,43.80
2022-08-10T07:40:35.441Z,43.80
2022-08-10T07:45:51.331Z,43.90
2022-08-10T07:51:07.112Z,43.90
2022-08-10T07:56:47.377Z,43.90
2022-08-10T08:01:57.109Z,43.90
2022-08-10T08:07:12.088Z,43.90
2022-08-10T08:12:34.821Z,43.80
2022-08-10T08:17:59.680Z,43.90
2022-08-10T08:24:09.123Z,43.80
2022-08-10T08:28:51.028Z,43.90
2022-08-10T08:34:06.032Z,43.80
2022-08-10T08:39:21.380Z,43.70
2022-08-10T08:44:37.084Z,43.60
2022-08-10T08:50:08.339Z,43.50
2022-08-10T08:56:04.736Z,43.40
2022-08-10T09:01:00.087Z,43.20
2022-08-10T09:06:15.048Z,43.00
2022-08-10T09:11:30.532Z,42.80
2022-08-10T09:16:46.051Z,42.60
2022-08-10T09:22:17.450Z,42.60
2022-08-10T09:27:35.225Z,42.60
2022-08-10T09:36:17.198Z,42.50
2022-08-10T09:38:26.073Z,42.40
2022-08-10T09:43:41.096Z,41.90
2022-08-10T09:48:56.332Z,41.80
2022-08-10T09:54:12.058Z,41.70
2022-08-10T10:00:00.153Z,41.50
2022-08-10T10:05:04.046Z,41.30
2022-08-10T10:10:19.340Z,41.40
2022-08-10T10:15:35.097Z,41.40
2022-08-10T10:20:50.370Z,41.40
2022-08-10T10:26:13.044Z,41.30
2022-08-10T10:31:33.077Z,41.60
2022-08-10T10:36:48.022Z,41.30
2022-08-10T10:42:05.030Z,41.50
2022-08-10T10:47:21.353Z,41.50
2022-08-10T10:52:37.085Z,41.50
2022-08-10T10:57:59.265Z,41.30
2022-08-10T11:03:16.077Z,41.30
2022-08-10T11:08:31.094Z,41.30
2022-08-10T11:14:26.588Z,41.20
2022-08-10T11:20:03.192Z,41.00
2022-08-10T11:25:19.035Z,41.00
2022-08-10T11:30:34.437Z,40.90
2022-08-10T11:35:50.039Z,40.80
2022-08-10T11:41:12.801Z,40.90
2022-08-10T11:46:40.037Z,40.90
2022-08-10T11:51:55.366Z,40.70
2022-08-10T11:57:11.435Z,40.10
2022-08-10T12:02:28.210Z,39.80
2022-08-10T12:08:10.364Z,40.10
2022-08-10T12:13:18.283Z,39.90
2022-08-10T12:18:34.410Z,39.80
2022-08-10T12:23:50.372Z,39.80
2022-08-10T12:29:22.414Z,40.20
2022-08-10T12:34:40.356Z,40.30
2022-08-10T12:40:12.007Z,39.90
2022-08-10T12:45:31.421Z,39.60
2022-08-10T12:50:47.415Z,39.50
2022-08-10T12:56:03.082Z,39.60
2022-08-10T13:01:18.535Z,39.30
2022-08-10T13:06:34.074Z,39.30
2022-08-10T13:12:44.944Z,39.00
2022-08-10T13:17:24.512Z,39.10
2022-08-10T13:22:48.052Z,39.60
2022-08-10T13:28:35.340Z,39.50
2022-08-10T13:34:03.651Z,39.50
2022-08-10T13:39:14.131Z,40.20
2022-08-10T13:44:29.693Z,40.30
2022-08-10T13:49:45.063Z,40.10
2022-08-10T13:55:00.048Z,40.10
2022-08-10T14:00:37.380Z,39.90
2022-08-10T14:05:50.372Z,39.40
2022-08-10T14:11:11.353Z,39.50
2022-08-10T14:16:28.099Z,39.40
2022-08-10T14:21:43.214Z,39.20
2022-08-10T14:26:58.417Z,39.20
2022-08-10T14:32:14.309Z,39.20
2022-08-10T14:37:30.105Z,39.30
2022-08-10T14:42:48.128Z,38.90
2022-08-10T14:48:04.254Z,39.00
2022-08-10T14:53:20.144Z,39.20
2022-08-10T14:59:06.388Z,39.20
2022-08-10T15:04:17.244Z,39.10
2022-08-10T15:10:01.652Z,38.90
2022-08-10T15:15:10.211Z,38.80
2022-08-10T15:20:25.070Z,38.90
2022-08-10T15:25:40.134Z,39.00
2022-08-10T15:31:13.416Z,38.70
2022-08-10T15:36:29.079Z,38.90
2022-08-10T15:41:59.255Z,38.30
2022-08-10T15:47:15.446Z,38.40
2022-08-10T15:52:59.980Z,38.10
2022-08-10T15:58:06.050Z,37.80
2022-08-10T16:03:21.140Z,37.90
2022-08-10T16:08:55.982Z,37.90
2022-08-10T16:14:12.103Z,37.90
2022-08-10T16:19:27.364Z,38.20
2022-08-10T16:24:43.362Z,38.30
2022-08-10T16:29:59.452Z,38.60
2022-08-10T16:35:15.367Z,38.90
2022-08-10T16:40:30.898Z,39.00
2022-08-10T16:45:46.076Z,38.80
2022-08-10T16:51:03.054Z,38.40
2022-08-10T16:56:18.442Z,38.40
2022-08-10T17:01:34.180Z,38.50
2022-08-10T17:06:53.786Z,39.20
2022-08-10T17:12:11.130Z,38.60
2022-08-10T17:17:26.227Z,38.80
2022-08-10T17:22:41.081Z,38.60
2022-08-10T17:28:05.447Z,38.50
2022-08-10T17:33:25.146Z,38.60
2022-08-10T17:38:40.382Z,38.60
2022-08-10T17:44:01.982Z,38.10
2022-08-10T17:49:18.074Z,37.50
2022-08-10T17:54:33.093Z,37.40
2022-08-10T17:59:48.350Z,37.60
2022-08-10T18:05:04.034Z,38.30
2022-08-10T18:10:19.063Z,37.70
2022-08-10T18:15:34.416Z,37.90
2022-08-10T18:20:50.085Z,38.00
2022-08-10T18:26:05.143Z,38.00
2022-08-10T18:31:20.447Z,38.20
2022-08-10T18:36:36.261Z,38.20
2022-08-10T18:42:05.046Z,38.30
2022-08-10T18:47:21.186Z,38.20
2022-08-10T18:52:36.096Z,38.30
2022-08-10T18:57:51.378Z,38.40
2022-08-10T19:03:07.100Z,38.50
2022-08-10T19:08:30.594Z,38.40
2022-08-10T19:13:50.688Z,38.50
2022-08-10T19:19:06.475Z,38.60
2022-08-10T19:24:38.147Z,38.60
2022-08-10T19:30:11.000Z,38.50
2022-08-10T19:35:28.091Z,38.60
2022-08-10T19:40:45.898Z,38.70
2022-08-10T19:46:03.210Z,38.70
2022-08-10T19:51:19.062Z,38.90
2022-08-10T19:56:35.111Z,39.00
2022-08-10T20:01:55.405Z,39.10
2022-08-10T20:07:12.488Z,39.10
2022-08-10T20:12:28.147Z,39.20
2022-08-10T20:17:51.370Z,39.20
2022-08-10T20:23:08.131Z,39.20
2022-08-10T20:28:23.114Z,39.30
2022-08-10T20:33:38.421Z,39.40
2022-08-10T20:38:54.121Z,39.40
2022-08-10T20:44:10.098Z,39.50
2022-08-10T20:49:25.125Z,39.60
2022-08-10T20:54:40.427Z,39.60
2022-08-10T21:00:02.419Z,39.60
2022-08-10T21:05:20.062Z,39.50
2022-08-10T21:10:35.101Z,39.50
2022-08-10T21:15:49.895Z,39.60
2022-08-10T21:21:06.150Z,39.60
2022-08-10T21:26:29.449Z,39.50
2022-08-10T21:31:45.510Z,39.40
2022-08-10T21:37:01.101Z,39.40
2022-08-10T21:42:16.941Z,39.30
2022-08-10T21:47:41.897Z,39.30
2022-08-10T21:53:04.292Z,39.30
2022-08-10T21:58:20.131Z,39.30
2022-08-10T22:03:39.962Z,39.20
2022-08-10T22:08:56.419Z,39.20
2022-08-10T22:14:12.560Z,39.30
2022-08-10T22:19:28.100Z,39.20
2022-08-10T22:24:43.390Z,39.20
2022-08-10T22:29:59.085Z,39.20
2022-08-10T22:35:15.388Z,39.20
2022-08-10T22:40:31.207Z,39.10
2022-08-10T22:45:46.151Z,39.10
2022-08-10T22:51:01.116Z,39.10
2022-08-10T22:56:16.098Z,39.10
2022-08-10T23:01:31.153Z,39.10
2022-08-10T23:06:46.446Z,39.10
2022-08-10T23:12:02.445Z,39.20
2022-08-10T23:17:19.308Z,39.10
2022-08-10T23:22:35.144Z,39.20
2022-08-10T23:27:50.409Z,39.10
2022-08-10T23:33:12.158Z,39.20
2022-08-10T23:38:27.189Z,39.20
2022-08-10T23:44:02.844Z,39.20
2022-08-10T23:49:17.094Z,39.20
2022-08-10T23:54:32.392Z,39.20
2022-08-10T23:59:48.116Z,39.10
